Flight Track Log - Related Links

Times and Time Zones

All times are in EDT time to prevent confusion due to time zone crossing. See the N431EH flight status page for this flight to view local times or setup timezone preferences in your user account.

Time Position Orientation Groundspeed Altitude Reporting Facility
EDT Latitude Longitude Course Direction KTS MPH feet Rate Location/Type
Mon 03:30:30 PM 32.7179 -96.7601 192° South 277 319 7,000  Level FlightAware ADS-B
Mon 03:30:57 PM 32.6841 -96.7684 192° South 273 314 8,300 4,600 Climbing FlightAware ADS-B
Mon 03:31:00 PM 32.6804 -96.7696 214° Southwest 275 316 9,300 2,700 Climbing FlightAware ADS-B
Mon 03:31:57 PM 32.6358 -96.8361 242° Southwest 296 341 11,000 2,313 Climbing FlightAware ADS-B
Mon 03:32:36 PM 32.6251 -96.8852 293° West 299 344 13,000 3,266 Climbing FlightAware ADS-B
Mon 03:33:16 PM 32.6586 -96.9545 304° West 314 361 15,300 3,818 Climbing FlightAware ADS-B
Mon 03:34:15 PM 32.7057 -97.0376 304° West 314 361 19,300 3,624 Climbing FlightAware ADS-B
Mon 03:34:57 PM 32.7344 -97.0889 304° West 331 381 21,400 2,820 Climbing FlightAware ADS-B
Mon 03:35:55 PM 32.7420 -97.1025 304° West 357 411 24,000 2,553 Climbing FlightAware ADS-B
Mon 03:36:31 PM 32.8184 -97.2391 303° West 359 413 25,400 2,647 Climbing FlightAware ADS-B
Mon 03:37:03 PM 32.8482 -97.2928 303° West 363 418 27,000 2,959 Climbing FlightAware ADS-B
Mon 03:37:44 PM 32.8872 -97.3629 303° West 363 418 29,000 2,769 Climbing FlightAware ADS-B
Mon 03:38:21 PM 32.9211 -97.4241 303° West 368 423 30,600 2,712 Climbing FlightAware ADS-B
Mon 03:38:57 PM 32.9612 -97.4967 303° West 373 429 32,300 2,368 Climbing FlightAware ADS-B
Mon 03:39:37 PM 32.9995 -97.5662 304° West 376 433 33,600 1,805 Climbing FlightAware ADS-B
Mon 03:40:50 PM 33.0011 -97.5690 303° West 398 458 35,700 1,600 Climbing FlightAware ADS-B
Mon 03:41:52 PM 33.1190 -97.8230 291° West 404 465 37,200 1,562 Climbing FlightAware ADS-B
Mon 03:43:16 PM 33.1746 -97.9963 291° West 397 457 39,500 1,344 Climbing FlightAware ADS-B
Mon 03:43:57 PM 33.1762 -98.0016 290° West 405 466 40,000 217 Climbing FlightAware ADS-B
Mon 03:45:34 PM 33.2451 -98.2221 299° West 421 484 40,000  Level FlightAware ADS-B
Mon 03:47:46 PM 33.4151 -98.5396 305° West 421 484 40,000  Level FlightAware ADS-B
Mon 03:48:50 PM 33.4733 -98.6383 305° West 412 474 40,000  Level Fort Worth Center
Mon 03:49:52 PM 33.5414 -98.7533 305° West 416 479 40,000  Level Fort Worth Center
Mon 03:50:54 PM 33.6117 -98.8678 306° West 424 488 40,000  Level Fort Worth Center
Mon 03:51:56 PM 33.6914 -99.0047 305° West 421 484 40,000  Level Fort Worth Center
Mon 03:52:58 PM 33.7594 -99.1194 306° West 421 484 40,000  Level Fort Worth Center
Mon 03:54:00 PM 33.8281 -99.2356 305° West 427 491 40,000  Level Fort Worth Center
Mon 03:55:02 PM 33.8953 -99.3506 305° West 418 481 40,000  Level Fort Worth Center
Mon 03:56:04 PM 33.9622 -99.4642 305° West 419 482 40,000  Level Fort Worth Center
Mon 03:57:06 PM 34.0428 -99.6031 305° West 421 484 40,000  Level Fort Worth Center
Mon 03:58:09 PM 34.1108 -99.7192 305° West 424 488 40,000  Level Fort Worth Center
Mon 03:59:11 PM 34.1789 -99.8372 305° West 425 489 40,000  Level Fort Worth Center
Mon 04:00:13 PM 34.2467 -99.9547 305° West 428 493 40,000  Level Fort Worth Center
Mon 04:01:15 PM 34.3144 -100.0725 305° West 428 493 40,000  Level Fort Worth Center
Mon 04:02:17 PM 34.3847 -100.1981 304° West 429 494 40,000  Level Fort Worth Center
Mon 04:03:19 PM 34.4522 -100.3172 305° West 428 493 40,000  Level Fort Worth Center
Mon 04:04:21 PM 34.5364 -100.4567 306° West 429 494 40,000  Level Fort Worth Center
Mon 04:05:23 PM 34.6022 -100.5786 303° West 429 494 40,000  Level Fort Worth Center
Mon 04:06:10 PM 34.6550 -100.6739 304° West 428 493 40,000  Level Albuquerque Center
Mon 04:07:12 PM 34.7222 -100.7942 304° West 429 494 40,000  Level Albuquerque Center
Mon 04:08:13 PM 34.7903 -100.9133 305° West 429 494 40,000  Level Albuquerque Center
Mon 04:09:15 PM 34.8572 -101.0328 304° West 429 494 40,000  Level Albuquerque Center
Mon 04:10:17 PM 34.9219 -101.1519 304° West 427 491 40,000  Level Albuquerque Center
Mon 04:11:19 PM 34.9894 -101.2719 304° West 426 490 40,000  Level Albuquerque Center
Mon 04:12:21 PM 35.0678 -101.4125 304° West 425 489 40,000  Level Albuquerque Center
Mon 04:13:23 PM 35.1339 -101.5314 304° West 425 489 40,000  Level Albuquerque Center
Mon 04:14:25 PM 35.2050 -101.6622 304° West 425 489 40,000  Level Albuquerque Center
Mon 04:15:27 PM 35.2722 -101.7828 304° West 425 489 40,000  Level Albuquerque Center
Mon 04:16:29 PM 35.3369 -101.9042 303° West 425 489 40,000  Level Albuquerque Center
Mon 04:17:31 PM 35.4008 -102.0247 303° West 425 489 40,000  Level Albuquerque Center
Mon 04:18:33 PM 35.4672 -102.1453 304° West 425 489 40,000  Level Albuquerque Center
Mon 04:19:35 PM 35.5328 -102.2661 304° West 425 489 40,000  Level Albuquerque Center
Mon 04:20:36 PM 35.5975 -102.3878 303° West 425 489 40,000  Level Albuquerque Center
Mon 04:21:38 PM 35.6758 -102.5322 304° West 425 489 40,000  Level Albuquerque Center
Mon 04:22:40 PM 35.7400 -102.6536 303° West 425 489 40,000  Level Albuquerque Center
Mon 04:23:42 PM 35.8056 -102.7758 304° West 425 489 40,000  Level Albuquerque Center
Mon 04:24:44 PM 35.8706 -102.8994 303° West 426 490 40,000  Level Albuquerque Center
Mon 04:25:46 PM 35.9386 -103.0272 303° West 426 490 40,000  Level Albuquerque Center
Mon 04:26:48 PM 36.0036 -103.1519 303° West 427 491 40,000  Level Albuquerque Center
Mon 04:27:50 PM 36.0686 -103.2758 303° West 427 491 40,000  Level Albuquerque Center
Mon 04:28:52 PM 36.1444 -103.4211 303° West 427 491 40,000  Level Albuquerque Center
Mon 04:29:54 PM 36.2092 -103.5450 303° West 427 491 40,000  Level Albuquerque Center
Mon 04:30:55 PM 36.2733 -103.6700 303° West 427 491 40,000  Level Albuquerque Center
Mon 04:31:57 PM 36.3381 -103.7936 303° West 427 491 40,000  Level Albuquerque Center
Mon 04:32:59 PM 36.4022 -103.9197 302° West 427 491 40,000  Level Albuquerque Center
Mon 04:34:01 PM 36.4672 -104.0447 303° West 427 491 40,000  Level Albuquerque Center
Mon 04:35:03 PM 36.5317 -104.1703 303° West 427 491 40,000  Level Albuquerque Center
Mon 04:36:05 PM 36.6061 -104.3189 302° West 428 493 40,000  Level Albuquerque Center
Mon 04:37:07 PM 36.6711 -104.4461 303° West 429 494 40,000  Level Albuquerque Center
Mon 04:42:35 PM 36.9996 -105.1024 302° West 440 506 40,000  Level FlightAware ADS-B
Mon 04:43:39 PM 37.0905 -105.2864 302° West 439 505 40,000  Level FlightAware ADS-B
Mon 04:44:23 PM 37.1329 -105.3724 302° West 438 504 40,000  Level FlightAware ADS-B (EGHH / BOH)
Mon 04:44:42 PM 37.1615 -105.4305 302° West 436 502 40,000  Level FlightAware ADS-B (EGHH / BOH)
Mon 04:45:02 PM 37.1832 -105.4748 301° West 436 502 40,000  Level FlightAware ADS-B (KGUC)
Mon 04:45:36 PM 37.2190 -105.5479 302° West 435 501 40,000  Level FlightAware ADS-B (KGUC)
Mon 04:45:55 PM 37.2389 -105.5887 301° West 434 499 40,000  Level FlightAware ADS-B (EGHH / BOH)
Mon 04:46:34 PM 37.2767 -105.6661 301° West 432 497 40,000  Level FlightAware ADS-B (EGHH / BOH)
Mon 04:47:04 PM 37.3108 -105.7362 301° West 432 497 40,000  Level FlightAware ADS-B (EGHH / BOH)
Mon 04:47:35 PM 37.3428 -105.8014 303° West 432 497 40,000  Level FlightAware ADS-B (EGHH / BOH)
Mon 04:47:47 PM 37.3360 -105.7879 306° West 433 498 40,000  Level FlightAware ADS-B (KGUC)
Mon 04:48:21 PM 37.3883 -105.8796 307° West 432 497 40,000  Level FlightAware ADS-B
Mon 04:49:05 PM 37.4503 -105.9835 307° West 435 501 40,000  Level FlightAware ADS-B
Mon 04:49:35 PM 37.4751 -106.0251 307° West 434 499 40,000  Level FlightAware ADS-B
Mon 04:50:07 PM 37.5028 -106.0716 307° West 434 499 40,000  Level FlightAware ADS-B (KGUC)
Mon 04:50:39 PM 37.5475 -106.1467 307° West 432 497 40,000  Level FlightAware ADS-B
Mon 04:51:23 PM 37.6156 -106.2615 307° West 432 497 40,000  Level FlightAware ADS-B
Mon 04:51:53 PM 37.6501 -106.3197 307° West 433 498 40,000  Level FlightAware ADS-B
Mon 04:52:27 PM 37.6932 -106.3926 307° West 434 499 40,000  Level FlightAware ADS-B
Mon 04:52:57 PM 37.7292 -106.4535 307° West 435 501 40,000  Level FlightAware ADS-B
Mon 04:53:27 PM 37.7605 -106.5068 307° West 433 498 40,000  Level FlightAware ADS-B (KGUC)
Mon 04:53:58 PM 37.8007 -106.5752 306° West 431 496 40,000  Level FlightAware ADS-B (KGUC)
Mon 04:54:35 PM 37.8329 -106.6302 307° West 430 495 40,000  Level FlightAware ADS-B
Mon 04:55:05 PM 37.8777 -106.7065 306° West 431 496 40,000  Level FlightAware ADS-B
Mon 04:55:36 PM 37.9123 -106.7657 306° West 432 497 40,000  Level FlightAware ADS-B
Mon 04:56:06 PM 37.9488 -106.8283 306° West 433 498 40,000  Level FlightAware ADS-B
Mon 04:56:37 PM 37.9898 -106.8988 306° West 432 497 40,000  Level FlightAware ADS-B
Mon 04:57:07 PM 38.0258 -106.9607 306° West 433 498 40,000  Level FlightAware ADS-B
Mon 04:57:37 PM 38.0523 -107.0063 306° West 432 497 40,000  Level FlightAware ADS-B (KGUC)
Mon 04:58:07 PM 38.0931 -107.0769 306° West 432 497 40,000  Level FlightAware ADS-B (KGUC)
Mon 04:58:37 PM 38.1308 -107.1421 306° West 431 496 40,000  Level FlightAware ADS-B (KGUC)
Mon 04:59:13 PM 38.1738 -107.2167 306° West 431 496 40,000  Level FlightAware ADS-B
Mon 04:59:47 PM 38.2143 -107.2870 306° West 432 497 40,000  Level FlightAware ADS-B
Mon 05:00:17 PM 38.2449 -107.3403 306° West 433 498 40,000  Level FlightAware ADS-B
Mon 05:00:47 PM 38.2844 -107.4093 306° West 433 498 40,000  Level FlightAware ADS-B (KGUC)
Mon 05:01:21 PM 38.3157 -107.4640 306° West 432 497 40,000  Level FlightAware ADS-B
Mon 05:01:54 PM 38.3518 -107.5272 306° West 432 497 40,000  Level FlightAware ADS-B
Mon 05:02:24 PM 38.3982 -107.6086 306° West 433 498 40,000  Level FlightAware ADS-B
Mon 05:03:04 PM 38.4386 -107.6797 306° West 436 502 40,000  Level FlightAware ADS-B
Mon 05:03:38 PM 38.4810 -107.7545 306° West 434 499 40,000  Level FlightAware ADS-B
Mon 05:04:17 PM 38.5298 -107.8408 306° West 432 497 40,000  Level FlightAware ADS-B (KGUC)
Mon 05:05:00 PM 38.5725 -107.9164 306° West 433 498 40,000  Level FlightAware ADS-B
Mon 05:06:03 PM 38.6543 -108.0618 306° West 427 491 40,000  Level FlightAware ADS-B
Mon 05:06:42 PM 38.6908 -108.1270 306° West 422 486 40,000  Level FlightAware ADS-B (KGUC)
Mon 05:07:12 PM 38.7278 -108.1931 306° West 423 487 40,000  Level FlightAware ADS-B (KGUC)
Mon 05:07:53 PM 38.7755 -108.2785 306° West 427 491 40,000  Level FlightAware ADS-B (KGUC)
Mon 05:08:24 PM 38.7911 -108.3065 305° West 432 497 40,000  Level FlightAware ADS-B
Mon 05:08:54 PM 38.8462 -108.4056 305° West 435 501 40,000  Level FlightAware ADS-B (KGUC)
Mon 05:09:26 PM 38.8808 -108.4681 305° West 440 506 40,000  Level FlightAware ADS-B
Mon 05:10:00 PM 38.9225 -108.5433 305° West 440 506 40,000  Level FlightAware ADS-B
Mon 05:10:30 PM 38.9622 -108.6153 305° West 441 507 40,000  Level FlightAware ADS-B
Mon 05:11:13 PM 39.0082 -108.6986 305° West 441 507 40,000  Level FlightAware ADS-B
Mon 05:11:43 PM 39.0268 -108.7324 304° West 440 506 40,000  Level FlightAware ADS-B
Mon 05:12:20 PM 39.0735 -108.8278 298° West 438 504 40,000  Level FlightAware ADS-B
Mon 05:12:50 PM 39.1137 -108.9260 298° West 439 505 40,000  Level FlightAware ADS-B
Mon 05:13:20 PM 39.1402 -108.9915 298° West 437 503 40,000  Level FlightAware ADS-B
Mon 05:13:50 PM 39.1692 -109.0633 297° West 437 503 40,000  Level FlightAware ADS-B
Mon 05:14:24 PM 39.1979 -109.1345 297° West 434 499 40,000  Level FlightAware ADS-B
Mon 05:14:54 PM 39.2288 -109.2114 297° West 437 503 40,000  Level FlightAware ADS-B
Mon 05:15:25 PM 39.2569 -109.2815 297° West 437 503 40,000  Level FlightAware ADS-B
Mon 05:15:55 PM 39.2848 -109.3513 297° West 437 503 40,000  Level FlightAware ADS-B
Mon 05:16:32 PM 39.3158 -109.4290 297° West 436 502 40,000  Level FlightAware ADS-B (KGUC)
Mon 05:17:09 PM 39.3537 -109.5243 297° West 436 502 40,000  Level FlightAware ADS-B
Mon 05:17:41 PM 39.3815 -109.5945 297° West 435 501 40,000  Level FlightAware ADS-B
Mon 05:18:11 PM 39.4081 -109.6617 297° West 433 498 40,000  Level FlightAware ADS-B
Mon 05:19:02 PM 39.4501 -109.7682 297° West 431 496 40,000 -214 Level FlightAware ADS-B
Mon 05:19:35 PM 39.4835 -109.8531 297° West 435 501 39,700 -750 Descending FlightAware ADS-B
Mon 05:20:06 PM 39.5101 -109.9210 297° West 438 504 39,200 -1,048 Descending FlightAware ADS-B
Mon 05:20:38 PM 39.5435 -110.0062 297° West 439 505 38,600 -1,500 Descending FlightAware ADS-B
Mon 05:21:10 PM 39.5727 -110.0812 297° West 440 506 37,600 -1,944 Descending FlightAware ADS-B
Mon 05:21:49 PM 39.5592 -110.0464 297° West 437 503 36,300 -2,056 Descending FlightAware ADS-B (KGUC)
Mon 05:22:58 PM 39.6644 -110.3172 297° West 444 511 33,900 -2,124 Descending FlightAware ADS-B
Mon 05:23:42 PM 39.7116 -110.4393 297° West 441 507 32,300 -2,087 Descending FlightAware ADS-B
Mon 05:24:30 PM 39.7504 -110.5402 296° West 416 479 30,700 -2,049 Descending FlightAware ADS-B
Mon 05:25:04 PM 39.7787 -110.6143 296° West 403 464 29,500 -1,915 Descending FlightAware ADS-B
Mon 05:26:04 PM 39.8310 -110.7513 296° West 391 450 27,700 -1,842 Descending FlightAware ADS-B
Mon 05:26:58 PM 39.8727 -110.8610 296° West 382 440 26,000 -1,878 Descending FlightAware ADS-B
Mon 05:27:59 PM 39.9146 -110.9717 296° West 392 451 24,100 -1,805 Descending FlightAware ADS-B
Mon 05:29:01 PM 39.9686 -111.1144 296° West 350 403 22,300 -1,597 Descending FlightAware ADS-B
Mon 05:30:03 PM 40.0079 -111.2194 296° West 300 345 20,800 -1,376 Descending FlightAware ADS-B
Mon 05:30:50 PM 40.0380 -111.3001 296° West 319 367 19,800 -1,418 Descending FlightAware ADS-B
Mon 05:31:53 PM 40.0793 -111.4105 296° West 322 371 18,200 -1,532 Descending FlightAware ADS-B
Mon 05:32:24 PM 40.0988 -111.4626 296° West 316 364 17,400 -1,541 Descending FlightAware ADS-B
Mon 05:33:07 PM 40.1262 -111.5366 296° West 314 361 16,300 -649 Descending FlightAware ADS-B
Mon 05:34:15 PM 40.1687 -111.6514 296° West 312 359 16,200 -59 Descending FlightAware ADS-B
Mon 05:34:49 PM 40.1984 -111.7073 313° West 330 380 16,200 -538 Level FlightAware ADS-B
Mon 05:35:33 PM 40.2440 -111.7686 314° West 318 366 15,500 -973 Descending FlightAware ADS-B
Mon 05:36:03 PM 40.2684 -111.8016 314° West 311 358 15,000 -973 Descending FlightAware ADS-B
Mon 05:36:47 PM 40.3254 -111.8617 333° Northwest 326 375 14,300 -973 Descending FlightAware ADS-B
Mon 05:37:17 PM 40.3670 -111.8875 334° Northwest 308 354 13,800 -1,014 Descending FlightAware ADS-B
Mon 05:37:58 PM 40.4189 -111.9175 342° North 287 330 13,100 -1,034 Descending FlightAware ADS-B
Mon 05:38:15 PM 40.4354 -111.9222 354° North 287 330 12,800 -1,021 Descending FlightAware ADS-B
Mon 05:38:45 PM 40.4800 -111.9286 353° North 277 319 12,300 -1,313 Descending FlightAware ADS-B (KBTF)
Mon 05:39:19 PM 40.5175 -111.9337 355° North 280 322 11,400 -1,500 Descending FlightAware ADS-B
Mon 05:39:49 PM 40.5594 -111.9380 356° North 271 312 10,700 -896 Descending FlightAware ADS-B
Mon 05:40:26 PM 40.6051 -111.9429 355° North 226 260 10,400 -842 Descending FlightAware ADS-B (KBTF)
Mon 05:40:46 PM 40.6251 -111.9454 354° North 215 247 9,900 -1,833 Descending FlightAware ADS-B (KBTF)
Mon 05:41:02 PM 40.6417 -111.9475 355° North 210 242 9,300 -2,500 Descending FlightAware ADS-B
Mon 05:41:22 PM 40.6606 -111.9498 355° North 200 230 8,400 -2,182 Descending FlightAware ADS-B
Mon 05:41:46 PM 40.6806 -111.9521 355° North 161 185 7,700 -1,909 Descending FlightAware ADS-B (KBTF)
Mon 05:42:06 PM 40.6956 -111.9539 354° North 147 169 7,000 -2,250 Descending FlightAware ADS-B (KBTF)
Mon 05:42:26 PM 40.7094 -111.9560 352° North 150 173 6,200 -2,082 Descending FlightAware ADS-B (KBTF)
Mon 05:42:55 PM 40.7289 -111.9586 355° North 131 151 5,300 -1,375 Descending FlightAware ADS-B
Mon 05:43:14 PM 40.7411 -111.9598 355° North 129 148 5,100 -808 Descending FlightAware ADS-B
Mon 05:43:47 PM 40.7607 -111.9621 357° North 131 151 4,600 -750 Descending FlightAware ADS-B (KBTF)
Mon 05:44:02 PM 40.7699 -111.9621 North 113 130 4,500 -414 Descending FlightAware ADS-B (KBTF)
Mon 05:44:16 PM 40.7774 -111.9621 360° North 101 116 4,400 -429 Descending FlightAware ADS-B (KBTF)

Login

Don't have an account? Register now (free) for customized features, flight alerts, and more!